Time;durP1;ratioP1;P1;durP2;ratioP2;P2;SDS_P1;SDS_P2;PMS_P1;PMS_P2;Temp;Humidity;BMP_temperature;BMP_pressure;BME280_temperature;BME280_humidity;BME280_pressure;Samples;Min_cycle;Max_cycle;Signal;HPM_P1;HPM_P2
2024/01/06 00:00:12;;;;;;;12.07;6.05;;;3.10;99.90;;;;;;5027631;28;20107;-70
2024/01/06 00:02:38;;;;;;;11.88;6.88;;;3.10;99.90;;;;;;5001591;28;20037;-69
2024/01/06 00:05:07;;;;;;;9.82;5.60;;;3.00;99.90;;;;;;5004322;28;20048;-69
2024/01/06 00:07:33;;;;;;;13.00;6.50;;;3.00;99.90;;;;;;4999099;28;20069;-70
2024/01/06 00:10:11;;;;;;;10.18;5.80;;;3.00;99.90;;;;;;5028324;28;20052;-71
2024/01/06 00:12:37;;;;;;;11.15;5.85;;;3.00;99.90;;;;;;5031099;28;20383;-71
2024/01/06 00:15:03;;;;;;;9.88;5.65;;;3.00;99.90;;;;;;5018912;28;20057;-71
2024/01/06 00:17:29;;;;;;;9.55;5.70;;;3.00;99.90;;;;;;5007394;28;20041;-71
2024/01/06 00:19:55;;;;;;;10.07;5.40;;;3.00;99.90;;;;;;5009818;28;20517;-71
2024/01/06 00:22:21;;;;;;;10.07;5.07;;;3.00;99.90;;;;;;5026544;28;20472;-71
2024/01/06 00:24:46;;;;;;;10.07;5.60;;;2.90;99.90;;;;;;5027863;28;20405;-71
2024/01/06 00:27:13;;;;;;;9.37;5.00;;;2.90;99.90;;;;;;5030159;28;20050;-71
2024/01/06 00:29:39;;;;;;;10.25;5.75;;;2.90;99.90;;;;;;5021756;28;20036;-71
2024/01/06 00:32:05;;;;;;;9.30;5.27;;;2.90;99.90;;;;;;5027148;28;20045;-71
2024/01/06 00:34:31;;;;;;;8.35;4.97;;;2.80;99.90;;;;;;5023604;28;20073;-71
2024/01/06 00:36:59;;;;;;;9.95;5.05;;;2.80;99.90;;;;;;5014281;28;20069;-71
2024/01/06 00:39:25;;;;;;;9.10;5.27;;;2.80;99.90;;;;;;5024792;28;20044;-71
2024/01/06 00:41:50;;;;;;;9.43;5.73;;;2.80;99.90;;;;;;5026147;28;20045;-71
2024/01/06 00:44:16;;;;;;;8.67;4.97;;;2.90;99.90;;;;;;5021262;28;20104;-71
2024/01/06 00:46:41;;;;;;;11.27;5.57;;;2.90;99.90;;;;;;5024456;28;20045;-71
2024/01/06 00:49:07;;;;;;;9.20;5.20;;;2.80;99.90;;;;;;5027352;28;20084;-71
2024/01/06 00:51:33;;;;;;;10.43;5.40;;;2.80;99.90;;;;;;5026295;28;20072;-71
2024/01/06 00:53:58;;;;;;;9.07;5.07;;;2.80;99.90;;;;;;5018357;28;20053;-71
2024/01/06 00:56:24;;;;;;;9.87;5.20;;;2.80;99.90;;;;;;5028218;28;20342;-71
2024/01/06 00:58:50;;;;;;;8.57;4.83;;;2.80;99.90;;;;;;5023870;28;20476;-70
2024/01/06 01:01:15;;;;;;;9.73;6.03;;;2.80;99.90;;;;;;5026193;28;20037;-70
2024/01/06 01:03:41;;;;;;;10.03;5.47;;;2.80;99.90;;;;;;5029046;28;20506;-70
2024/01/06 01:06:06;;;;;;;10.33;5.63;;;2.70;99.90;;;;;;5018652;28;20046;-74
2024/01/06 01:08:34;;;;;;;10.23;5.53;;;2.70;99.90;;;;;;5025564;28;20621;-71
2024/01/06 01:11:00;;;;;;;10.03;5.50;;;2.70;99.90;;;;;;5027243;28;20319;-71
2024/01/06 01:13:26;;;;;;;9.87;5.93;;;2.60;99.90;;;;;;5021971;28;20068;-72
2024/01/06 01:15:51;;;;;;;12.70;6.03;;;2.60;99.90;;;;;;5027449;28;20500;-72
2024/01/06 01:18:17;;;;;;;10.80;5.83;;;2.60;99.90;;;;;;5029588;28;20562;-72
2024/01/06 01:20:43;;;;;;;10.67;5.93;;;2.60;99.90;;;;;;5035208;28;20037;-71
2024/01/06 01:23:08;;;;;;;13.23;5.63;;;2.60;99.90;;;;;;5024056;28;20220;-71
2024/01/06 01:25:34;;;;;;;15.00;7.53;;;2.60;99.90;;;;;;5025548;28;20099;-72
2024/01/06 01:27:59;;;;;;;13.17;6.83;;;2.60;99.90;;;;;;5028158;28;20101;-72
2024/01/06 01:30:25;;;;;;;11.23;6.43;;;2.60;99.90;;;;;;5005704;28;20043;-71
2024/01/06 01:32:51;;;;;;;9.97;5.60;;;2.60;99.90;;;;;;5023424;28;20040;-71
2024/01/06 01:35:19;;;;;;;14.70;6.27;;;2.60;99.90;;;;;;5023510;28;20044;-71
2024/01/06 01:37:44;;;;;;;11.15;5.60;;;2.50;99.90;;;;;;5024202;28;20049;-69
2024/01/06 01:40:10;;;;;;;12.57;5.70;;;2.50;99.90;;;;;;5026733;28;20291;-69
2024/01/06 01:42:38;;;;;;;10.02;5.20;;;2.50;99.90;;;;;;5024303;28;20073;-69
2024/01/06 01:45:05;;;;;;;11.10;5.43;;;2.50;99.90;;;;;;5025263;28;20072;-69
2024/01/06 01:47:30;;;;;;;11.73;5.95;;;2.50;99.90;;;;;;5012586;28;20474;-69
2024/01/06 01:49:57;;;;;;;12.97;5.47;;;2.50;99.90;;;;;;5021065;28;20125;-70
2024/01/06 01:52:22;;;;;;;9.15;5.03;;;2.50;99.90;;;;;;5029205;28;20030;-70
2024/01/06 01:54:48;;;;;;;10.80;5.20;;;2.40;99.90;;;;;;5025185;28;20055;-70
2024/01/06 01:57:16;;;;;;;11.07;5.53;;;2.50;99.90;;;;;;5025673;28;20045;-70
2024/01/06 01:59:42;;;;;;;10.60;5.32;;;2.50;99.90;;;;;;5020488;28;20046;-70
2024/01/06 02:02:08;;;;;;;7.77;4.80;;;2.40;99.90;;;;;;5028758;28;20112;-70
2024/01/06 02:04:34;;;;;;;9.98;5.22;;;2.40;99.90;;;;;;5021290;28;20310;-70
2024/01/06 02:07:00;;;;;;;11.45;6.13;;;2.40;99.90;;;;;;5023992;28;20121;-70
2024/01/06 02:09:29;;;;;;;9.27;4.90;;;2.40;99.90;;;;;;5022988;28;20045;-70
2024/01/06 02:11:56;;;;;;;11.07;5.32;;;2.40;99.90;;;;;;5025519;28;20049;-70
2024/01/06 02:14:24;;;;;;;12.18;5.63;;;2.40;99.90;;;;;;5024260;28;20449;-70
2024/01/06 02:16:50;;;;;;;10.15;5.47;;;2.40;99.90;;;;;;5026334;28;20382;-70
2024/01/06 02:19:17;;;;;;;12.80;6.00;;;2.40;99.90;;;;;;5026854;28;20048;-70
2024/01/06 02:21:44;;;;;;;9.85;5.20;;;2.40;99.90;;;;;;5025214;28;20123;-70
2024/01/06 02:24:10;;;;;;;12.90;6.05;;;2.30;99.90;;;;;;5023561;28;20053;-70
2024/01/06 02:26:35;;;;;;;12.75;5.95;;;2.30;99.90;;;;;;5020608;28;20048;-70
2024/01/06 02:29:04;;;;;;;9.85;4.85;;;2.30;99.90;;;;;;5019374;28;20517;-70
2024/01/06 02:31:29;;;;;;;9.47;4.83;;;2.30;99.90;;;;;;5025452;28;20162;-70
2024/01/06 02:33:57;;;;;;;12.55;5.38;;;2.40;99.90;;;;;;5020753;28;20045;-70
2024/01/06 02:36:23;;;;;;;11.17;6.07;;;2.30;99.90;;;;;;5024803;28;20179;-70
2024/01/06 02:38:48;;;;;;;10.50;4.90;;;2.40;99.90;;;;;;5023014;28;20088;-70
2024/01/06 02:41:14;;;;;;;11.27;5.60;;;2.40;99.90;;;;;;5009984;28;20410;-69
2024/01/06 02:43:40;;;;;;;10.30;4.83;;;2.40;99.90;;;;;;5025725;28;20042;-70
2024/01/06 02:46:07;;;;;;;8.00;4.73;;;2.40;99.90;;;;;;5025111;28;20042;-70
2024/01/06 02:48:32;;;;;;;8.48;4.78;;;2.40;99.90;;;;;;5022042;28;20120;-69
2024/01/06 02:50:58;;;;;;;10.70;4.77;;;2.30;99.90;;;;;;5024520;28;20247;-70
2024/01/06 02:53:24;;;;;;;10.63;5.43;;;2.40;99.90;;;;;;5025780;28;20048;-70
2024/01/06 02:55:49;;;;;;;11.73;5.77;;;2.30;99.90;;;;;;5019596;28;20088;-70
2024/01/06 02:58:17;;;;;;;10.07;4.97;;;2.40;99.90;;;;;;5020839;28;20136;-70
2024/01/06 03:00:42;;;;;;;10.45;5.22;;;2.40;99.90;;;;;;5022971;28;20041;-70
2024/01/06 03:03:08;;;;;;;9.73;5.40;;;2.40;99.90;;;;;;5022493;28;20052;-70
2024/01/06 03:05:36;;;;;;;11.00;5.85;;;2.40;99.90;;;;;;5022810;28;20045;-70
2024/01/06 03:08:03;;;;;;;10.18;5.35;;;2.40;99.90;;;;;;5006593;28;20156;-70
2024/01/06 03:10:29;;;;;;;;;;;2.40;99.90;;;;;;5020807;28;20041;-70
2024/01/06 03:12:54;;;;;;;11.20;5.18;;;2.40;99.90;;;;;;5021596;28;19923;-70
2024/01/06 03:15:20;;;;;;;10.80;5.83;;;2.40;99.90;;;;;;5022320;28;20299;-70
2024/01/06 03:17:45;;;;;;;11.40;5.73;;;2.40;99.90;;;;;;5024672;28;20493;-70
2024/01/06 03:20:11;;;;;;;11.23;5.63;;;2.40;99.90;;;;;;5023681;28;20041;-70
2024/01/06 03:22:38;;;;;;;9.07;4.80;;;2.40;99.90;;;;;;5018647;28;20091;-70
2024/01/06 03:25:04;;;;;;;12.77;6.07;;;2.30;99.90;;;;;;5025972;28;20125;-70
2024/01/06 03:27:30;;;;;;;11.75;6.57;;;2.30;99.90;;;;;;5023825;28;20128;-69
2024/01/06 03:29:55;;;;;;;11.33;5.83;;;2.30;99.90;;;;;;5020915;28;20117;-70
2024/01/06 03:32:21;;;;;;;10.80;6.03;;;2.30;99.90;;;;;;5024055;28;20045;-70
2024/01/06 03:34:50;;;;;;;10.90;6.30;;;2.40;99.90;;;;;;5023909;28;20139;-70
2024/01/06 03:37:15;;;;;;;10.90;5.90;;;2.30;99.90;;;;;;5016855;28;20539;-70
2024/01/06 03:39:41;;;;;;;11.30;5.97;;;2.40;99.90;;;;;;5021852;28;20139;-70
2024/01/06 03:42:07;;;;;;;14.00;6.23;;;2.40;99.90;;;;;;5008013;28;20041;-70
2024/01/06 03:44:38;;;;;;;12.85;6.45;;;2.40;99.90;;;;;;5022875;28;20117;-70
2024/01/06 03:47:06;;;;;;;11.98;5.75;;;2.30;99.90;;;;;;5038623;28;20100;-69
2024/01/06 03:49:32;;;;;;;9.30;5.67;;;2.40;99.90;;;;;;5021350;28;20142;-70
2024/01/06 03:51:58;;;;;;;17.43;6.33;;;2.40;99.90;;;;;;5022826;28;20048;-70
2024/01/06 03:54:23;;;;;;;10.30;5.70;;;2.30;99.90;;;;;;5017427;28;20534;-69
2024/01/06 03:56:49;;;;;;;11.10;5.87;;;2.30;99.90;;;;;;5027060;28;20042;-70
2024/01/06 03:59:15;;;;;;;10.35;5.80;;;2.40;99.90;;;;;;5019730;28;20302;-70
2024/01/06 04:01:41;;;;;;;9.47;5.30;;;2.40;99.90;;;;;;5024183;28;20040;-70
2024/01/06 04:04:07;;;;;;;12.53;5.30;;;2.40;99.90;;;;;;5005242;28;20129;-70
2024/01/06 04:06:32;;;;;;;8.38;4.78;;;2.40;99.90;;;;;;5022718;28;20049;-69
2024/01/06 04:08:58;;;;;;;9.63;5.10;;;2.40;99.90;;;;;;5024674;28;20052;-70
2024/01/06 04:11:26;;;;;;;9.97;5.63;;;2.40;99.90;;;;;;5022603;28;20048;-70
2024/01/06 04:13:52;;;;;;;9.85;5.25;;;2.40;99.90;;;;;;5022381;28;20421;-70
2024/01/06 04:16:18;;;;;;;9.27;5.23;;;2.40;99.90;;;;;;5023674;28;20034;-70
2024/01/06 04:18:43;;;;;;;12.03;5.43;;;2.40;99.90;;;;;;5022096;28;20041;-70
2024/01/06 04:21:09;;;;;;;11.53;6.03;;;2.40;99.90;;;;;;5021333;28;20041;-70
2024/01/06 04:23:34;;;;;;;13.30;5.47;;;2.40;99.90;;;;;;5023279;28;20045;-69
2024/01/06 04:26:01;;;;;;;11.47;5.57;;;2.40;99.90;;;;;;5024536;28;20107;-70
2024/01/06 04:28:27;;;;;;;9.85;5.15;;;2.40;99.90;;;;;;5039485;28;20147;-70
2024/01/06 04:30:53;;;;;;;12.05;5.65;;;2.40;99.90;;;;;;5018134;28;20128;-70
2024/01/06 04:33:19;;;;;;;12.77;6.03;;;2.40;99.90;;;;;;5023121;28;20472;-70
2024/01/06 04:35:44;;;;;;;11.13;5.50;;;2.40;99.90;;;;;;5027386;28;20081;-69
2024/01/06 04:38:10;;;;;;;12.37;5.60;;;2.40;99.90;;;;;;5002966;28;20045;-69
2024/01/06 04:40:36;;;;;;;7.90;4.83;;;2.40;99.90;;;;;;5024948;28;20120;-70
2024/01/06 04:43:03;;;;;;;11.33;5.27;;;2.40;99.90;;;;;;5024228;28;20048;-70
2024/01/06 04:45:28;;;;;;;9.60;4.97;;;2.40;99.90;;;;;;5007276;28;20053;-70
2024/01/06 04:47:54;;;;;;;14.50;5.73;;;2.40;99.90;;;;;;5026243;28;20414;-69
2024/01/06 04:50:19;;;;;;;11.37;5.37;;;2.40;99.90;;;;;;5026659;28;20083;-70
2024/01/06 04:52:45;;;;;;;10.77;5.93;;;2.40;99.90;;;;;;5027523;28;20078;-70
2024/01/06 04:55:11;;;;;;;13.00;4.80;;;2.40;99.90;;;;;;5026963;28;20489;-69
2024/01/06 04:57:37;;;;;;;9.27;4.87;;;2.40;99.90;;;;;;5008869;28;20120;-70
2024/01/06 05:00:04;;;;;;;11.30;5.47;;;2.40;99.90;;;;;;5023697;28;20535;-70
2024/01/06 05:02:30;;;;;;;12.50;4.90;;;2.40;99.90;;;;;;5023825;28;20052;-69
2024/01/06 05:04:58;;;;;;;9.82;4.80;;;2.40;99.90;;;;;;5026542;28;20085;-70
2024/01/06 05:07:24;;;;;;;11.50;5.03;;;2.40;99.90;;;;;;5025754;28;20049;-69
2024/01/06 05:09:49;;;;;;;10.27;5.03;;;2.40;99.90;;;;;;5025218;28;20428;-69
2024/01/06 05:12:15;;;;;;;15.67;6.47;;;2.50;99.90;;;;;;5026692;28;20113;-70
2024/01/06 05:14:40;;;;;;;10.50;4.43;;;2.40;99.90;;;;;;5025049;28;20123;-70
2024/01/06 05:17:09;;;;;;;10.68;4.88;;;2.40;99.90;;;;;;5022686;28;20052;-69
2024/01/06 05:19:35;;;;;;;8.03;4.70;;;2.40;99.90;;;;;;5025419;28;20057;-70
2024/01/06 05:22:00;;;;;;;10.93;5.40;;;2.40;99.90;;;;;;5025863;28;20050;-70
2024/01/06 05:24:26;;;;;;;13.63;5.30;;;2.40;99.90;;;;;;5023519;28;20056;-70
2024/01/06 05:26:52;;;;;;;11.07;5.40;;;2.40;99.90;;;;;;5025196;28;20033;-70
2024/01/06 05:29:17;;;;;;;7.30;4.70;;;2.40;99.90;;;;;;5001760;28;20041;-70
2024/01/06 05:31:43;;;;;;;9.67;5.00;;;2.40;99.90;;;;;;5025440;28;20368;-70
2024/01/06 05:34:09;;;;;;;12.43;5.10;;;2.40;99.90;;;;;;5022925;28;20044;-69
2024/01/06 05:36:34;;;;;;;9.20;5.27;;;2.40;99.90;;;;;;5020729;28;20052;-69
2024/01/06 05:39:00;;;;;;;9.07;4.63;;;2.40;99.90;;;;;;5019910;28;20057;-70
2024/01/06 05:41:28;;;;;;;10.27;5.03;;;2.50;99.90;;;;;;5025044;28;20044;-70
2024/01/06 05:43:54;;;;;;;10.70;5.03;;;2.40;99.90;;;;;;5023062;28;20282;-70
2024/01/06 05:46:26;;;;;;;10.13;4.70;;;2.40;99.90;;;;;;5023594;28;20128;-69
2024/01/06 05:48:52;;;;;;;7.30;4.32;;;2.40;99.90;;;;;;5023072;28;20045;-69
2024/01/06 05:51:17;;;;;;;9.20;4.60;;;2.50;99.90;;;;;;5027256;28;20044;-69
2024/01/06 05:53:43;;;;;;;9.90;5.03;;;2.50;99.90;;;;;;5025776;28;20296;-70
2024/01/06 05:56:09;;;;;;;10.97;5.00;;;2.50;99.90;;;;;;5021500;28;20050;-70
2024/01/06 05:58:35;;;;;;;8.80;4.78;;;2.50;99.90;;;;;;5020618;28;20044;-70
2024/01/06 06:01:05;;;;;;;10.68;5.47;;;2.50;99.90;;;;;;5020429;28;20045;-70
2024/01/06 06:03:31;;;;;;;10.15;5.55;;;2.50;99.90;;;;;;5025720;28;20053;-70
2024/01/06 06:05:57;;;;;;;10.07;5.25;;;2.50;99.90;;;;;;5018329;28;20176;-77
2024/01/06 06:08:23;;;;;;;9.30;4.93;;;2.50;99.90;;;;;;5007822;28;20076;-73
2024/01/06 06:11:00;;;;;;;10.37;5.57;;;2.50;99.90;;;;;;5008351;28;20356;-70
2024/01/06 06:13:27;;;;;;;9.35;5.00;;;2.50;99.90;;;;;;5031925;28;20033;-74
2024/01/06 06:15:52;;;;;;;8.80;4.60;;;2.50;99.90;;;;;;5022256;28;20490;-71
2024/01/06 06:18:18;;;;;;;10.43;5.77;;;2.50;99.90;;;;;;5007112;28;20056;-71
2024/01/06 06:20:49;;;;;;;8.33;4.83;;;2.50;99.90;;;;;;5029365;28;20402;-71
2024/01/06 06:23:15;;;;;;;14.20;5.45;;;2.50;99.90;;;;;;5019678;28;20430;-70
2024/01/06 06:25:40;;;;;;;12.07;5.57;;;2.50;99.90;;;;;;5006016;28;20048;-74
2024/01/06 06:28:06;;;;;;;9.97;5.17;;;2.60;99.90;;;;;;5024946;28;20045;-70
2024/01/06 06:30:32;;;;;;;13.47;5.60;;;2.50;99.90;;;;;;5022565;28;20069;-69
2024/01/06 06:32:58;;;;;;;8.15;5.57;;;2.50;99.90;;;;;;5021198;28;20034;-70
2024/01/06 06:35:24;;;;;;;14.07;5.87;;;2.50;99.90;;;;;;5022843;28;20041;-69
2024/01/06 06:37:50;;;;;;;10.23;5.25;;;2.50;99.90;;;;;;5022800;28;20037;-69
2024/01/06 06:40:16;;;;;;;8.17;4.90;;;2.50;99.90;;;;;;5006954;28;20045;-69
2024/01/06 06:42:41;;;;;;;11.00;5.22;;;2.50;99.90;;;;;;5007571;28;20243;-70
2024/01/06 06:45:08;;;;;;;10.20;5.27;;;2.50;99.90;;;;;;5020669;28;20570;-69
2024/01/06 06:47:33;;;;;;;11.68;5.82;;;2.50;99.90;;;;;;5023308;28;20392;-69
2024/01/06 06:50:00;;;;;;;13.27;5.33;;;2.60;99.90;;;;;;5021406;28;20093;-69
2024/01/06 06:52:28;;;;;;;10.85;5.80;;;2.60;99.90;;;;;;5022844;28;20041;-70
2024/01/06 06:54:54;;;;;;;9.23;5.30;;;2.60;99.90;;;;;;5021211;28;20421;-69
2024/01/06 06:57:22;;;;;;;11.90;5.73;;;2.60;99.90;;;;;;5021879;28;20148;-70
2024/01/06 06:59:56;;;;;;;13.68;5.65;;;2.60;99.90;;;;;;5019420;28;20044;-70
2024/01/06 07:02:23;;;;;;;8.55;5.03;;;2.60;99.90;;;;;;5021228;28;20045;-69
2024/01/06 07:04:51;;;;;;;13.10;5.60;;;2.50;99.90;;;;;;5022843;28;20129;-69
2024/01/06 07:07:17;;;;;;;10.05;5.65;;;2.60;99.90;;;;;;5020430;28;20093;-69
2024/01/06 07:09:42;;;;;;;13.97;6.00;;;2.50;99.90;;;;;;5023874;28;20067;-69
2024/01/06 07:12:11;;;;;;;12.23;6.22;;;2.60;99.90;;;;;;5024814;28;20479;-69
2024/01/06 07:14:37;;;;;;;10.63;5.60;;;2.50;99.90;;;;;;5018990;28;20103;-69
2024/01/06 07:17:05;;;;;;;11.05;5.97;;;2.50;99.90;;;;;;5022300;28;20053;-70
2024/01/06 07:19:34;;;;;;;10.80;5.47;;;2.50;99.90;;;;;;5017412;28;20080;-69
2024/01/06 07:22:00;;;;;;;10.80;6.20;;;2.60;99.90;;;;;;5021527;28;20049;-69
2024/01/06 07:24:26;;;;;;;10.87;5.37;;;2.60;99.90;;;;;;5009173;28;20037;-69
2024/01/06 07:26:55;;;;;;;15.25;5.88;;;2.60;99.90;;;;;;5020658;28;20422;-69
2024/01/06 07:29:24;;;;;;;11.85;6.40;;;2.60;99.90;;;;;;5015173;28;20041;-70
2024/01/06 07:31:49;;;;;;;11.48;6.53;;;2.60;99.90;;;;;;5002674;28;20050;-70
2024/01/06 07:34:15;;;;;;;10.97;5.27;;;2.60;99.90;;;;;;5013148;28;20071;-69
2024/01/06 07:36:41;;;;;;;10.63;5.18;;;2.60;99.90;;;;;;5017087;28;20409;-69
2024/01/06 07:39:07;;;;;;;12.83;6.13;;;2.60;99.90;;;;;;5011009;28;20059;-69
2024/01/06 07:41:35;;;;;;;13.03;6.17;;;2.60;99.90;;;;;;5003906;28;20496;-70
2024/01/06 07:44:02;;;;;;;8.65;5.45;;;2.60;99.90;;;;;;5016292;28;20053;-69
2024/01/06 07:46:28;;;;;;;;;;;2.60;99.90;;;;;;5015574;28;20041;-70
2024/01/06 07:48:54;;;;;;;11.73;6.30;;;2.60;99.90;;;;;;5002515;28;19921;-72
2024/01/06 07:51:20;;;;;;;10.83;5.17;;;2.60;99.90;;;;;;5016402;28;20412;-69
2024/01/06 07:53:45;;;;;;;11.67;6.93;;;2.60;99.90;;;;;;5020112;28;20287;-70
2024/01/06 07:56:11;;;;;;;11.57;6.20;;;2.60;99.90;;;;;;5021133;28;20037;-69
2024/01/06 07:58:37;;;;;;;11.17;5.70;;;2.60;99.90;;;;;;5016512;28;20030;-69
2024/01/06 08:01:02;;;;;;;14.77;6.10;;;2.60;99.90;;;;;;5018888;28;20072;-69
2024/01/06 08:03:28;;;;;;;11.77;5.60;;;2.60;99.90;;;;;;5016404;28;20214;-69
2024/01/06 08:05:54;;;;;;;9.07;4.90;;;2.70;99.90;;;;;;5020309;28;20476;-69
2024/01/06 08:08:19;;;;;;;14.07;6.10;;;2.70;99.90;;;;;;5016352;28;20785;-69
2024/01/06 08:10:47;;;;;;;10.37;5.40;;;2.70;99.90;;;;;;5022255;28;20033;-69
2024/01/06 08:13:12;;;;;;;10.30;5.68;;;2.70;99.90;;;;;;5003377;28;20201;-69
2024/01/06 08:15:38;;;;;;;10.27;5.57;;;2.70;99.90;;;;;;5016714;28;20076;-69
2024/01/06 08:18:09;;;;;;;8.73;5.37;;;2.70;99.90;;;;;;5024261;28;20056;-75
2024/01/06 08:20:34;;;;;;;16.17;5.63;;;2.70;99.90;;;;;;5023447;28;20401;-70
2024/01/06 08:23:00;;;;;;;12.77;5.87;;;2.70;99.90;;;;;;5014026;28;20464;-69
2024/01/06 08:25:26;;;;;;;10.27;5.40;;;2.70;99.90;;;;;;5016313;28;20037;-81
2024/01/06 08:27:51;;;;;;;10.27;5.37;;;2.80;99.90;;;;;;5024101;28;20051;-74
2024/01/06 08:30:17;;;;;;;13.90;6.47;;;2.70;99.90;;;;;;5022747;28;20081;-73
2024/01/06 08:32:42;;;;;;;9.87;6.10;;;2.70;99.90;;;;;;5029641;28;20087;-75
2024/01/06 08:35:09;;;;;;;14.20;5.30;;;2.80;99.90;;;;;;5026233;28;20208;-71
2024/01/06 08:37:35;;;;;;;10.30;6.53;;;2.80;99.90;;;;;;5026855;28;20046;-71
2024/01/06 08:40:01;;;;;;;11.53;5.77;;;2.80;99.90;;;;;;5024718;28;20041;-72
2024/01/06 08:42:27;;;;;;;16.83;6.50;;;2.80;99.90;;;;;;5008571;28;20391;-72
2024/01/06 08:44:52;;;;;;;10.43;6.43;;;2.80;99.90;;;;;;5027130;28;20045;-71
2024/01/06 08:47:18;;;;;;;11.00;6.50;;;2.80;99.90;;;;;;5021359;28;20373;-73
2024/01/06 08:49:44;;;;;;;12.10;6.28;;;2.80;99.90;;;;;;5022611;28;20042;-71
2024/01/06 08:52:09;;;;;;;12.33;6.20;;;2.80;99.90;;;;;;5018981;28;20106;-71
2024/01/06 08:54:35;;;;;;;13.17;6.73;;;2.80;99.90;;;;;;5023008;28;20033;-72
2024/01/06 08:57:00;;;;;;;13.27;7.23;;;2.80;99.90;;;;;;5017440;28;20049;-74
2024/01/06 08:59:26;;;;;;;10.30;6.07;;;2.90;99.90;;;;;;5019573;28;20037;-76
2024/01/06 09:01:52;;;;;;;14.70;6.80;;;2.90;99.90;;;;;;5021232;28;20045;-73
2024/01/06 09:04:20;;;;;;;10.60;5.93;;;2.80;99.90;;;;;;5021330;28;20045;-71
2024/01/06 09:06:50;;;;;;;12.68;6.45;;;2.90;99.90;;;;;;5023878;28;20057;-76
2024/01/06 09:09:16;;;;;;;13.30;6.80;;;2.90;99.90;;;;;;5016832;28;20100;-80
2024/01/06 09:11:43;;;;;;;11.30;6.43;;;2.90;99.90;;;;;;5009730;28;20079;-71
2024/01/06 09:14:12;;;;;;;16.40;7.32;;;2.80;99.90;;;;;;5014765;28;20322;-78
2024/01/06 09:16:37;;;;;;;12.03;6.77;;;2.90;99.90;;;;;;5025421;28;20041;-72
2024/01/06 09:19:06;;;;;;;17.15;6.78;;;2.90;99.90;;;;;;5023521;28;20136;-75
2024/01/06 09:21:31;;;;;;;9.60;6.13;;;2.90;99.90;;;;;;5022389;28;20558;-70
2024/01/06 09:23:57;;;;;;;12.37;6.57;;;2.80;99.90;;;;;;5020327;28;20103;-75
2024/01/06 09:26:22;;;;;;;11.07;7.10;;;2.90;99.90;;;;;;5021515;28;20371;-69
2024/01/06 09:28:48;;;;;;;11.70;5.77;;;2.90;99.90;;;;;;5023528;28;20418;-69
2024/01/06 09:31:14;;;;;;;12.27;6.37;;;2.90;99.90;;;;;;5019914;28;20041;-69
2024/01/06 09:33:39;;;;;;;13.50;5.67;;;2.90;99.90;;;;;;5021756;28;20038;-69
2024/01/06 09:36:05;;;;;;;15.60;6.70;;;2.90;99.90;;;;;;5025581;28;20076;-69
2024/01/06 09:38:31;;;;;;;15.17;6.27;;;2.80;99.90;;;;;;5024592;28;20116;-68
2024/01/06 09:40:58;;;;;;;14.60;7.60;;;2.90;99.90;;;;;;5028024;28;20591;-69
2024/01/06 09:43:23;;;;;;;12.95;6.45;;;2.90;99.90;;;;;;5026412;28;20573;-68
2024/01/06 09:46:00;;;;;;;11.63;6.47;;;2.90;99.90;;;;;;5027808;28;20144;-69
2024/01/06 09:48:33;;;;;;;13.13;6.28;;;2.90;99.90;;;;;;5022865;28;20131;-69
2024/01/06 09:51:02;;;;;;;10.98;5.68;;;2.90;99.90;;;;;;5028319;28;20377;-69
2024/01/06 09:53:36;;;;;;;12.60;6.95;;;3.00;99.90;;;;;;5025336;28;20325;-69
2024/01/06 09:56:03;;;;;;;11.55;6.32;;;3.00;99.90;;;;;;5028250;28;20477;-69
2024/01/06 09:58:32;;;;;;;15.75;7.10;;;3.00;99.90;;;;;;5028438;28;20502;-70
2024/01/06 10:01:00;;;;;;;22.55;7.57;;;3.00;99.90;;;;;;5020100;28;20258;-68
2024/01/06 10:03:26;;;;;;;15.00;6.93;;;3.00;99.90;;;;;;5026160;28;20112;-69
2024/01/06 10:05:52;;;;;;;;;;;3.00;99.90;;;;;;5027560;28;20049;-68
2024/01/06 10:08:21;;;;;;;9.07;5.22;;;3.00;99.90;;;;;;5026082;28;20772;-69
2024/01/06 10:10:49;;;;;;;14.57;5.65;;;3.00;99.90;;;;;;5029054;28;20068;-68
2024/01/06 10:13:18;;;;;;;16.00;6.35;;;3.00;99.90;;;;;;5029816;28;20040;-68
2024/01/06 10:15:46;;;;;;;10.60;5.95;;;3.00;99.90;;;;;;5018963;28;20037;-69
2024/01/06 10:18:15;;;;;;;10.83;5.97;;;3.10;99.90;;;;;;5026412;28;20049;-69
2024/01/06 10:20:41;;;;;;;12.70;6.57;;;3.10;99.90;;;;;;5023684;28;20395;-69
2024/01/06 10:23:06;;;;;;;10.73;6.00;;;3.10;99.90;;;;;;5030422;28;20033;-69
2024/01/06 10:25:35;;;;;;;15.03;6.73;;;3.10;99.90;;;;;;5025981;28;20401;-69
2024/01/06 10:28:03;;;;;;;11.63;6.95;;;3.00;99.90;;;;;;5028288;28;20042;-68
2024/01/06 10:30:29;;;;;;;13.23;6.88;;;3.10;99.90;;;;;;5025365;28;20042;-69
2024/01/06 10:32:57;;;;;;;12.63;6.87;;;3.00;99.90;;;;;;5026610;28;20482;-68
2024/01/06 10:35:26;;;;;;;13.25;6.53;;;3.10;99.90;;;;;;5020553;28;20091;-69
2024/01/06 10:37:52;;;;;;;13.50;7.13;;;3.00;99.90;;;;;;5026706;28;20061;-69
2024/01/06 10:40:17;;;;;;;12.45;6.55;;;3.00;99.90;;;;;;5023780;28;20045;-69
2024/01/06 10:42:44;;;;;;;16.00;6.73;;;3.00;99.90;;;;;;5028026;28;20037;-68
2024/01/06 10:45:10;;;;;;;;;;;3.00;99.90;;;;;;5026994;28;20053;-69
2024/01/06 10:47:37;;;;;;;12.07;5.95;;;3.00;99.90;;;;;;5027276;28;19917;-69
2024/01/06 10:50:03;;;;;;;16.45;7.10;;;3.00;99.90;;;;;;5027391;28;20040;-69
2024/01/06 10:52:32;;;;;;;11.68;6.25;;;3.00;99.90;;;;;;5025418;28;20517;-68
2024/01/06 10:54:58;;;;;;;12.17;6.37;;;3.00;99.90;;;;;;5009973;28;20052;-69
2024/01/06 10:57:24;;;;;;;11.63;6.55;;;3.00;99.90;;;;;;5026353;28;20045;-69
2024/01/06 10:59:51;;;;;;;10.93;5.90;;;3.00;99.90;;;;;;5026498;28;20045;-69
2024/01/06 11:02:17;;;;;;;12.98;6.32;;;3.10;99.90;;;;;;5025437;28;20283;-68
2024/01/06 11:04:47;;;;;;;12.30;6.00;;;3.10;99.90;;;;;;5025743;28;20636;-69
2024/01/06 11:07:21;;;;;;;12.73;6.40;;;3.10;99.90;;;;;;5021434;28;20136;-68
2024/01/06 11:09:57;;;;;;;14.52;6.78;;;3.10;99.90;;;;;;5010636;28;20037;-68
2024/01/06 11:12:23;;;;;;;15.75;6.20;;;3.10;99.90;;;;;;5021650;28;20046;-68
2024/01/06 11:14:49;;;;;;;12.90;6.60;;;3.10;99.90;;;;;;5022845;28;20069;-69
2024/01/06 11:17:53;;;;;;;11.80;6.00;;;3.10;99.90;;;;;;5025595;28;20085;-68
2024/01/06 11:20:20;;;;;;;10.13;5.85;;;3.10;99.90;;;;;;5020143;28;20057;-68
2024/01/06 11:22:46;;;;;;;10.95;5.55;;;3.10;99.90;;;;;;5023861;28;20056;-68
2024/01/06 11:25:15;;;;;;;8.90;5.03;;;3.10;99.90;;;;;;5025022;28;20037;-69
2024/01/06 11:27:44;;;;;;;9.70;4.85;;;3.10;99.90;;;;;;5025534;28;20038;-69
2024/01/06 11:30:20;;;;;;;11.63;5.55;;;3.10;99.90;;;;;;5019261;28;20394;-69
2024/01/06 11:32:50;;;;;;;7.80;4.63;;;3.20;99.90;;;;;;5011466;28;20581;-69
2024/01/06 11:35:18;;;;;;;10.20;5.75;;;3.20;99.90;;;;;;5015017;28;20364;-69
2024/01/06 11:37:43;;;;;;;11.88;5.60;;;3.20;99.90;;;;;;5024598;28;20053;-69
2024/01/06 11:40:13;;;;;;;9.80;4.87;;;3.20;99.90;;;;;;5024066;28;20053;-69
2024/01/06 11:42:41;;;;;;;8.25;4.45;;;3.30;99.90;;;;;;5023638;28;20079;-69
2024/01/06 11:45:08;;;;;;;11.52;5.85;;;3.20;99.90;;;;;;5026296;28;20553;-69
2024/01/06 11:47:35;;;;;;;12.95;6.63;;;3.20;99.90;;;;;;5008384;28;20045;-69
2024/01/06 11:50:04;;;;;;;10.30;5.03;;;3.20;99.90;;;;;;5008115;28;20076;-69
2024/01/06 11:52:32;;;;;;;9.13;4.40;;;3.30;99.90;;;;;;5022434;28;20037;-69
2024/01/06 11:54:58;;;;;;;10.35;4.63;;;3.30;99.90;;;;;;5022397;28;20148;-69
2024/01/06 11:57:26;;;;;;;8.13;4.82;;;3.30;99.90;;;;;;5008009;28;20048;-69
2024/01/06 11:59:52;;;;;;;8.63;4.85;;;3.30;99.90;;;;;;5023190;28;20045;-69
2024/01/06 12:02:18;;;;;;;8.63;4.07;;;3.30;99.90;;;;;;5024859;28;20080;-69
2024/01/06 12:04:51;;;;;;;10.32;5.13;;;3.30;99.90;;;;;;5024260;28;20081;-69
2024/01/06 12:07:19;;;;;;;8.75;4.65;;;3.30;99.90;;;;;;5026044;28;20045;-69
2024/01/06 12:09:47;;;;;;;9.40;4.32;;;3.30;99.90;;;;;;5024939;28;20038;-69
2024/01/06 12:12:15;;;;;;;9.05;4.90;;;3.30;99.90;;;;;;5024157;28;20073;-69
2024/01/06 12:14:45;;;;;;;11.60;5.00;;;3.20;99.90;;;;;;5022217;28;20127;-69
2024/01/06 12:17:14;;;;;;;9.00;4.43;;;3.20;99.90;;;;;;5024140;28;20049;-69
2024/01/06 12:19:43;;;;;;;7.68;4.60;;;3.20;99.90;;;;;;5008941;28;20053;-69
2024/01/06 12:22:15;;;;;;;8.73;4.47;;;3.20;99.90;;;;;;5025598;28;20094;-69
2024/01/06 12:24:42;;;;;;;8.77;5.20;;;3.30;99.90;;;;;;5015916;28;20290;-69
2024/01/06 12:27:11;;;;;;;8.52;4.53;;;3.30;99.90;;;;;;5005761;28;20037;-69
2024/01/06 12:29:43;;;;;;;9.40;5.30;;;3.30;99.90;;;;;;5024512;28;20038;-69
2024/01/06 12:32:10;;;;;;;8.02;4.70;;;3.30;99.90;;;;;;5026094;28;20080;-69
2024/01/06 12:34:36;;;;;;;7.60;4.38;;;3.40;99.90;;;;;;5019455;28;20422;-69
2024/01/06 12:37:04;;;;;;;8.65;5.10;;;3.40;99.90;;;;;;5024724;28;20038;-69
2024/01/06 12:39:33;;;;;;;7.65;4.45;;;3.50;99.90;;;;;;5026924;28;20049;-69
2024/01/06 12:42:01;;;;;;;9.55;4.63;;;3.50;99.90;;;;;;5020775;28;20133;-69
2024/01/06 12:44:27;;;;;;;7.68;4.78;;;3.40;99.90;;;;;;5011334;28;20042;-69
2024/01/06 12:46:54;;;;;;;8.63;4.60;;;3.40;99.90;;;;;;5029030;28;20402;-69